Time;durP1;ratioP1;P1;durP2;ratioP2;P2;SDS_P1;SDS_P2;PMS_P1;PMS_P2;Temp;Humidity;BMP_temperature;BMP_pressure;BME280_temperature;BME280_humidity;BME280_pressure;Samples;Min_cycle;Max_cycle;Signal;HPM_P1;HPM_P2
2021/01/07 00:00:30;;;;;;;25.10;13.83;;;3.70;93.10;;;;;;5098934;28;20529;-80
2021/01/07 00:02:57;;;;;;;24.70;15.40;;;3.80;93.10;;;;;;5098136;28;20451;-81
2021/01/07 00:05:24;;;;;;;21.20;13.93;;;3.70;93.10;;;;;;5098288;28;20536;-80
2021/01/07 00:07:50;;;;;;;19.80;14.20;;;3.80;93.20;;;;;;5098162;28;20481;-80
2021/01/07 00:10:16;;;;;;;22.27;14.70;;;3.70;93.20;;;;;;5098688;28;20470;-81
2021/01/07 00:12:42;;;;;;;20.07;14.03;;;3.80;93.20;;;;;;5098644;28;20451;-80
2021/01/07 00:15:09;;;;;;;20.57;15.00;;;3.70;93.20;;;;;;5098187;28;20452;-80
2021/01/07 00:17:36;;;;;;;23.80;15.77;;;3.70;93.30;;;;;;5098397;28;20529;-81
2021/01/07 00:20:04;;;;;;;21.50;14.80;;;3.70;93.50;;;;;;5098149;28;20984;-81
2021/01/07 00:22:31;;;;;;;18.03;13.60;;;3.60;93.50;;;;;;5098288;28;20809;-80
2021/01/07 00:24:58;;;;;;;18.97;13.30;;;3.60;93.50;;;;;;5098151;28;20482;-80
2021/01/07 00:27:24;;;;;;;21.37;15.20;;;3.60;93.60;;;;;;5098657;28;20446;-80
2021/01/07 00:29:50;;;;;;;22.00;15.07;;;3.70;93.60;;;;;;5098420;28;20468;-80
2021/01/07 00:32:16;;;;;;;22.83;15.10;;;3.70;93.60;;;;;;5098405;28;20446;-80
2021/01/07 00:34:43;;;;;;;29.10;13.27;;;3.60;93.60;;;;;;5098383;28;20430;-80
2021/01/07 00:37:09;;;;;;;21.97;14.70;;;3.60;93.60;;;;;;5098034;28;20446;-80
2021/01/07 00:39:36;;;;;;;25.00;15.57;;;3.60;93.70;;;;;;5098088;28;20470;-80
2021/01/07 00:42:02;;;;;;;20.53;13.77;;;3.70;93.80;;;;;;5097753;28;20913;-80
2021/01/07 00:44:29;;;;;;;21.57;13.67;;;3.60;93.70;;;;;;5098025;28;20490;-82
2021/01/07 00:46:55;;;;;;;21.67;14.03;;;3.60;93.70;;;;;;5097679;28;20935;-81
2021/01/07 00:49:21;;;;;;;28.17;14.90;;;3.60;93.80;;;;;;5097557;28;21063;-80
2021/01/07 00:51:48;;;;;;;24.60;16.37;;;3.60;93.80;;;;;;5097646;28;20958;-80
2021/01/07 00:54:14;;;;;;;22.63;14.03;;;3.60;93.80;;;;;;5096237;28;20435;-80
2021/01/07 00:56:42;;;;;;;20.87;15.20;;;3.60;94.20;;;;;;5097645;28;20459;-80
2021/01/07 00:59:08;;;;;;;20.37;14.27;;;3.70;93.90;;;;;;5097841;28;20454;-80
2021/01/07 01:01:41;;;;;;;23.97;14.87;;;3.60;93.80;;;;;;5098095;28;20462;-80
2021/01/07 01:04:08;;;;;;;21.00;12.47;;;3.60;93.90;;;;;;5098500;28;20865;-80
2021/01/07 01:06:34;;;;;;;25.43;15.70;;;3.60;94.00;;;;;;5097512;28;20443;-80
2021/01/07 01:09:00;;;;;;;21.63;14.30;;;3.60;94.00;;;;;;5097657;28;20466;-81
2021/01/07 01:11:27;;;;;;;19.00;13.33;;;3.60;93.90;;;;;;5097617;28;20431;-80
2021/01/07 01:13:54;;;;;;;21.83;13.83;;;3.60;93.80;;;;;;5097256;28;20454;-80
2021/01/07 01:16:26;;;;;;;20.60;12.97;;;3.60;93.80;;;;;;5097815;28;20455;-80
2021/01/07 01:18:52;;;;;;;22.10;13.53;;;3.60;93.80;;;;;;5097687;28;20451;-81
2021/01/07 01:21:18;;;;;;;20.53;13.60;;;3.60;93.70;;;;;;5097821;28;20501;-80
2021/01/07 01:23:44;;;;;;;22.30;13.90;;;3.50;93.60;;;;;;5098086;28;20487;-81
2021/01/07 01:26:10;;;;;;;21.30;14.60;;;3.50;93.70;;;;;;5098569;28;20503;-80
2021/01/07 01:28:37;;;;;;;19.77;13.40;;;3.50;93.70;;;;;;5099669;28;20519;-81
2021/01/07 01:31:04;;;;;;;24.17;14.23;;;3.60;93.70;;;;;;5101223;28;20933;-81
2021/01/07 01:33:30;;;;;;;24.27;14.43;;;3.60;93.70;;;;;;5100635;28;20430;-81
2021/01/07 01:35:56;;;;;;;19.50;13.13;;;3.60;93.70;;;;;;5100089;28;20450;-81
2021/01/07 01:38:22;;;;;;;20.77;13.50;;;3.70;93.70;;;;;;5099751;28;20864;-81
2021/01/07 01:40:49;;;;;;;23.67;13.50;;;3.70;93.70;;;;;;5099236;28;20826;-81
2021/01/07 01:43:15;;;;;;;20.57;14.90;;;3.70;93.50;;;;;;5099559;28;20497;-81
2021/01/07 01:45:42;;;;;;;25.83;15.83;;;3.70;93.40;;;;;;5098719;28;20849;-80
2021/01/07 01:48:11;;;;;;;22.93;15.77;;;3.70;93.40;;;;;;5099565;28;20447;-80
2021/01/07 01:50:38;;;;;;;25.57;14.60;;;3.70;93.50;;;;;;5098449;28;20474;-80
2021/01/07 01:53:04;;;;;;;20.57;14.20;;;3.60;93.50;;;;;;5098567;28;20451;-80
2021/01/07 01:55:30;;;;;;;23.97;14.57;;;3.60;93.50;;;;;;5098688;28;20493;-80
2021/01/07 01:57:59;;;;;;;22.30;16.53;;;3.60;93.60;;;;;;5098780;28;20455;-80
2021/01/07 02:00:26;;;;;;;21.53;15.70;;;3.60;93.50;;;;;;5098818;28;20528;-80
2021/01/07 02:02:52;;;;;;;30.20;17.70;;;3.60;93.50;;;;;;5098419;28;20451;-80
2021/01/07 02:05:19;;;;;;;22.07;14.27;;;3.60;93.60;;;;;;5097292;28;20486;-80
2021/01/07 02:07:46;;;;;;;19.57;12.60;;;3.50;93.60;;;;;;5097779;28;20459;-80
2021/01/07 02:10:14;;;;;;;23.70;14.47;;;3.50;93.80;;;;;;5097626;28;20474;-80
2021/01/07 02:12:45;;;;;;;23.80;16.70;;;3.50;93.90;;;;;;5097541;28;20512;-80
2021/01/07 02:15:13;;;;;;;19.90;13.70;;;3.50;93.80;;;;;;5097846;28;20450;-80
2021/01/07 02:17:39;;;;;;;27.93;15.80;;;3.50;93.90;;;;;;5097701;28;20452;-80
2021/01/07 02:20:08;;;;;;;22.30;15.00;;;3.50;93.80;;;;;;5097313;28;20482;-80
2021/01/07 02:22:34;;;;;;;31.10;16.20;;;3.50;94.00;;;;;;5096777;28;20503;-80
2021/01/07 02:25:00;;;;;;;24.50;15.20;;;3.50;94.00;;;;;;5096966;28;20494;-80
2021/01/07 02:27:26;;;;;;;26.97;15.63;;;3.50;94.00;;;;;;5096982;28;20835;-80
2021/01/07 02:29:52;;;;;;;22.77;15.27;;;3.50;94.20;;;;;;5096660;28;21028;-80
2021/01/07 02:32:19;;;;;;;26.60;16.70;;;3.40;94.20;;;;;;5096528;28;20440;-80
2021/01/07 02:34:45;;;;;;;25.40;15.40;;;3.50;94.20;;;;;;5096807;28;20807;-80
2021/01/07 02:37:12;;;;;;;25.60;15.57;;;3.40;94.20;;;;;;5096606;28;20458;-80
2021/01/07 02:39:38;;;;;;;30.70;17.97;;;3.40;94.30;;;;;;5096532;28;20471;-80
2021/01/07 02:42:05;;;;;;;23.20;15.53;;;3.40;94.40;;;;;;5096639;28;20451;-80
2021/01/07 02:44:31;;;;;;;22.93;15.70;;;3.50;94.30;;;;;;5096065;28;20481;-80
2021/01/07 02:46:57;;;;;;;26.23;16.90;;;3.50;94.20;;;;;;5096410;28;20459;-80
2021/01/07 02:49:24;;;;;;;24.97;16.37;;;3.50;94.20;;;;;;5096147;28;20499;-80
2021/01/07 02:51:50;;;;;;;25.97;16.63;;;3.50;94.30;;;;;;5096124;28;20455;-80
2021/01/07 02:54:17;;;;;;;25.30;17.23;;;3.50;94.20;;;;;;5096245;28;20443;-80
2021/01/07 02:56:43;;;;;;;26.43;17.53;;;3.50;94.60;;;;;;5096183;28;20451;-80
2021/01/07 02:59:09;;;;;;;28.23;17.70;;;3.50;94.30;;;;;;5096089;28;20992;-80
2021/01/07 03:01:36;;;;;;;22.90;16.30;;;3.50;94.40;;;;;;5095821;28;20428;-80
2021/01/07 03:04:02;;;;;;;26.33;16.87;;;3.50;94.30;;;;;;5095804;28;20534;-80
2021/01/07 03:06:28;;;;;;;25.17;17.10;;;3.50;94.20;;;;;;5096395;28;20447;-80
2021/01/07 03:08:55;;;;;;;24.83;17.40;;;3.50;94.20;;;;;;5095907;28;20481;-81
2021/01/07 03:11:22;;;;;;;28.80;16.10;;;3.50;94.20;;;;;;5095920;28;20456;-81
2021/01/07 03:13:48;;;;;;;26.50;18.57;;;3.50;94.10;;;;;;5096030;28;20513;-80
2021/01/07 03:16:14;;;;;;;28.60;16.57;;;3.50;94.20;;;;;;5095337;28;20453;-80
2021/01/07 03:18:40;;;;;;;28.03;17.20;;;3.50;94.20;;;;;;5095824;28;20446;-80
2021/01/07 03:21:07;;;;;;;28.30;19.23;;;3.50;94.30;;;;;;5095640;28;20956;-80
2021/01/07 03:23:33;;;;;;;26.93;16.57;;;3.50;94.40;;;;;;5095472;28;20440;-80
2021/01/07 03:25:59;;;;;;;28.00;19.17;;;3.50;94.50;;;;;;5095761;28;20505;-80
2021/01/07 03:28:26;;;;;;;29.03;19.47;;;3.50;94.30;;;;;;5095472;28;20496;-80
2021/01/07 03:30:53;;;;;;;26.03;17.40;;;3.60;94.30;;;;;;5095707;28;20803;-80
2021/01/07 03:33:19;;;;;;;28.50;18.07;;;3.50;94.40;;;;;;5095698;28;20450;-80
2021/01/07 03:35:45;;;;;;;27.43;18.00;;;3.60;94.60;;;;;;5095587;28;21006;-81
2021/01/07 03:38:11;;;;;;;28.73;19.17;;;3.60;94.40;;;;;;5095195;28;20446;-80
2021/01/07 03:40:38;;;;;;;25.57;18.77;;;3.60;94.30;;;;;;5095757;28;20569;-81
2021/01/07 03:43:04;;;;;;;27.40;18.17;;;3.70;94.30;;;;;;5095627;28;20447;-80
2021/01/07 03:45:31;;;;;;;29.43;18.50;;;3.70;94.20;;;;;;5095573;28;20478;-81
2021/01/07 03:47:57;;;;;;;29.00;18.47;;;3.70;94.20;;;;;;5095781;28;20450;-81
2021/01/07 03:50:24;;;;;;;27.93;18.97;;;3.70;94.10;;;;;;5095322;28;20832;-80
2021/01/07 03:52:50;;;;;;;27.00;18.77;;;3.70;94.20;;;;;;5095556;28;20438;-80
2021/01/07 03:55:16;;;;;;;32.93;18.40;;;3.70;94.20;;;;;;5095492;28;20439;-81
2021/01/07 03:57:43;;;;;;;30.20;18.67;;;3.70;94.20;;;;;;5095733;28;20439;-80
2021/01/07 04:00:10;;;;;;;28.67;18.77;;;3.70;94.20;;;;;;5094943;28;20467;-80
2021/01/07 04:02:37;;;;;;;30.80;18.83;;;3.80;94.30;;;;;;5095253;28;20442;-81
2021/01/07 04:05:04;;;;;;;29.97;19.07;;;3.80;94.30;;;;;;5095796;28;20489;-81
2021/01/07 04:07:30;;;;;;;31.80;20.23;;;3.80;94.20;;;;;;5095498;28;20447;-80
2021/01/07 04:09:56;;;;;;;29.07;18.80;;;3.80;94.10;;;;;;5095630;28;20876;-81
2021/01/07 04:12:23;;;;;;;27.33;18.80;;;3.80;94.10;;;;;;5095418;28;20428;-80
2021/01/07 04:14:49;;;;;;;36.30;19.60;;;3.70;94.10;;;;;;5095403;28;20457;-80
2021/01/07 04:17:15;;;;;;;28.10;19.43;;;3.80;94.30;;;;;;5095405;28;20430;-81
2021/01/07 04:19:42;;;;;;;34.67;19.50;;;3.80;94.20;;;;;;5095106;28;20466;-80
2021/01/07 04:22:09;;;;;;;28.40;18.00;;;3.70;94.10;;;;;;5095115;28;20948;-80
2021/01/07 04:24:35;;;;;;;36.13;20.67;;;3.70;94.30;;;;;;5094819;28;20482;-80
2021/01/07 04:27:03;;;;;;;29.70;19.00;;;3.70;94.40;;;;;;5095191;28;20520;-81
2021/01/07 04:29:29;;;;;;;31.83;20.30;;;3.70;94.50;;;;;;5098722;28;20481;-81
2021/01/07 04:31:56;;;;;;;28.50;20.10;;;3.70;94.50;;;;;;5099182;28;20457;-80
2021/01/07 04:34:22;;;;;;;34.50;22.63;;;3.70;94.60;;;;;;5098830;28;20488;-80
2021/01/07 04:36:49;;;;;;;33.47;21.40;;;3.70;94.60;;;;;;5101309;28;20460;-81
2021/01/07 04:39:15;;;;;;;30.70;20.40;;;3.70;94.60;;;;;;5104196;28;20465;-81
2021/01/07 04:41:42;;;;;;;33.93;21.57;;;3.70;94.70;;;;;;5102491;28;20450;-81
2021/01/07 04:44:08;;;;;;;36.13;21.90;;;3.70;94.80;;;;;;5101627;28;20478;-81
2021/01/07 04:46:35;;;;;;;32.20;20.47;;;3.70;94.70;;;;;;5101161;28;20814;-81
2021/01/07 04:49:02;;;;;;;32.07;21.13;;;3.70;94.70;;;;;;5100326;28;21022;-80
2021/01/07 04:51:29;;;;;;;34.00;21.67;;;3.70;94.90;;;;;;5100611;28;20436;-81
2021/01/07 04:53:56;;;;;;;35.00;20.90;;;3.80;94.80;;;;;;5100411;28;20454;-81
2021/01/07 04:56:23;;;;;;;33.03;20.67;;;3.80;94.70;;;;;;5100114;28;20447;-80
2021/01/07 04:58:49;;;;;;;40.90;22.37;;;3.80;94.70;;;;;;5099602;28;20475;-80
2021/01/07 05:01:15;;;;;;;38.10;22.50;;;3.80;94.70;;;;;;5100389;28;20453;-81
2021/01/07 05:03:45;;;;;;;31.10;20.50;;;3.80;94.70;;;;;;5099518;28;20474;-80
2021/01/07 05:06:12;;;;;;;33.10;21.80;;;3.80;94.60;;;;;;5099802;28;20432;-81
2021/01/07 05:08:38;;;;;;;36.47;21.03;;;3.80;94.50;;;;;;5099257;28;20810;-80
2021/01/07 05:11:05;;;;;;;35.73;20.70;;;3.80;94.60;;;;;;5099169;28;20446;-80
2021/01/07 05:13:32;;;;;;;35.30;22.43;;;3.90;94.50;;;;;;5099217;28;20450;-80
2021/01/07 05:15:58;;;;;;;33.73;20.90;;;3.80;94.50;;;;;;5098986;28;20450;-81
2021/01/07 05:18:25;;;;;;;37.73;22.40;;;3.80;94.50;;;;;;5098011;28;20972;-81
2021/01/07 05:20:51;;;;;;;34.37;22.90;;;3.90;94.60;;;;;;5098474;28;21003;-81
2021/01/07 05:23:20;;;;;;;33.90;21.27;;;3.80;94.60;;;;;;5098435;28;20451;-81
2021/01/07 05:25:47;;;;;;;39.40;22.10;;;3.80;94.70;;;;;;5098280;28;20837;-81
2021/01/07 05:28:14;;;;;;;42.13;24.10;;;3.80;94.80;;;;;;5098140;28;20455;-81
2021/01/07 05:30:43;;;;;;;39.10;23.60;;;3.80;94.70;;;;;;5096647;28;20470;-82
2021/01/07 05:33:10;;;;;;;34.30;22.37;;;3.80;94.80;;;;;;5096992;28;20435;-82
2021/01/07 05:35:37;;;;;;;38.33;23.53;;;3.80;94.70;;;;;;5097061;28;20813;-82
2021/01/07 05:38:06;;;;;;;38.20;23.70;;;3.80;94.80;;;;;;5097514;28;20431;-83
2021/01/07 05:40:34;;;;;;;45.03;23.40;;;3.80;95.00;;;;;;5097211;28;20475;-82
2021/01/07 05:43:10;;;;;;;39.00;21.83;;;3.70;95.00;;;;;;5097231;28;20435;-82
2021/01/07 05:45:38;;;;;;;43.10;23.70;;;3.70;95.00;;;;;;5097114;28;20469;-82
2021/01/07 05:48:06;;;;;;;42.00;25.03;;;3.70;95.10;;;;;;5097106;28;20454;-82
2021/01/07 05:50:37;;;;;;;46.30;23.57;;;3.60;95.10;;;;;;5097223;28;20470;-82
2021/01/07 05:53:04;;;;;;;39.13;24.63;;;3.60;95.20;;;;;;5097280;28;20467;-82
2021/01/07 05:55:30;;;;;;;45.13;24.07;;;3.60;95.20;;;;;;5097513;28;20442;-82
2021/01/07 05:57:59;;;;;;;40.00;24.33;;;3.50;95.10;;;;;;5097519;28;20446;-82
2021/01/07 06:00:30;;;;;;;36.77;22.43;;;3.50;95.10;;;;;;5097305;28;20468;-83
2021/01/07 06:02:59;;;;;;;40.97;22.63;;;3.50;95.30;;;;;;5098178;28;20434;-82
2021/01/07 06:05:25;;;;;;;41.10;22.90;;;3.50;95.40;;;;;;5097876;28;20528;-82
2021/01/07 06:07:53;;;;;;;40.57;22.23;;;3.50;95.40;;;;;;5097050;28;20446;-83
2021/01/07 06:10:21;;;;;;;46.70;25.70;;;3.50;95.40;;;;;;5096857;28;20481;-82
2021/01/07 06:12:48;;;;;;;36.40;22.37;;;3.50;95.50;;;;;;5097076;28;20534;-82
2021/01/07 06:15:17;;;;;;;37.13;22.90;;;3.50;95.50;;;;;;5096114;28;20461;-82
2021/01/07 06:17:45;;;;;;;36.00;21.20;;;3.50;95.30;;;;;;5096130;28;20828;-82
2021/01/07 06:20:16;;;;;;;39.23;22.07;;;3.50;95.40;;;;;;5095766;28;20840;-82
2021/01/07 06:22:45;;;;;;;38.40;22.53;;;3.50;95.40;;;;;;5095667;28;20487;-82
2021/01/07 06:25:13;;;;;;;38.33;23.13;;;3.50;95.20;;;;;;5095678;28;20485;-82
2021/01/07 06:27:42;;;;;;;39.93;23.40;;;3.50;95.30;;;;;;5095679;28;20454;-82
2021/01/07 06:30:31;;;;;;;36.37;20.90;;;3.40;95.40;;;;;;5095593;28;20995;-82
2021/01/07 06:33:03;;;;;;;34.90;23.00;;;3.50;95.50;;;;;;5096117;28;20438;-82
2021/01/07 06:35:35;;;;;;;33.67;22.10;;;3.40;95.40;;;;;;5095712;28;20443;-82
2021/01/07 06:38:01;;;;;;;32.63;21.30;;;3.50;95.60;;;;;;5097640;28;20462;-82
2021/01/07 06:40:28;;;;;;;40.60;23.07;;;3.50;95.60;;;;;;5097407;28;20470;-82
2021/01/07 06:42:56;;;;;;;38.13;22.60;;;3.50;95.50;;;;;;5098818;28;20444;-82
2021/01/07 06:45:25;;;;;;;36.87;23.20;;;3.40;95.60;;;;;;5097222;28;20478;-83
2021/01/07 06:47:53;;;;;;;36.30;22.40;;;3.50;95.50;;;;;;5096874;28;20448;-83
2021/01/07 06:50:19;;;;;;;34.83;22.50;;;3.50;95.50;;;;;;5097607;28;21009;-83
2021/01/07 06:52:48;;;;;;;36.17;21.53;;;3.50;95.50;;;;;;5097892;28;20443;-82
2021/01/07 06:55:15;;;;;;;37.20;21.90;;;3.50;95.40;;;;;;5096534;28;20929;-83
2021/01/07 06:57:46;;;;;;;30.50;19.63;;;3.50;95.30;;;;;;5099908;28;20454;-83
2021/01/07 07:00:14;;;;;;;32.83;20.80;;;3.50;95.30;;;;;;5096267;28;20474;-83
2021/01/07 07:02:57;;;;;;;32.30;21.17;;;3.50;95.30;;;;;;5095303;28;20496;-84
2021/01/07 07:05:24;;;;;;;33.10;20.60;;;3.50;95.40;;;;;;5094396;28;20497;-83
2021/01/07 07:08:07;;;;;;;31.90;20.00;;;3.50;95.50;;;;;;5095913;28;20462;-83
2021/01/07 07:11:02;;;;;;;29.97;19.40;;;3.40;95.40;;;;;;5095233;28;20471;-83
2021/01/07 07:13:31;;;;;;;30.97;19.10;;;3.40;95.50;;;;;;5094856;28;20432;-82
2021/01/07 07:16:02;;;;;;;28.63;18.97;;;3.50;95.60;;;;;;5094600;28;20442;-82
2021/01/07 07:18:35;;;;;;;31.37;20.33;;;3.40;95.60;;;;;;5095075;28;20430;-82
2021/01/07 07:21:19;;;;;;;28.27;18.20;;;3.50;95.50;;;;;;5095113;28;20438;-82
2021/01/07 07:23:48;;;;;;;31.13;18.60;;;3.50;95.40;;;;;;5094878;28;20437;-83
2021/01/07 07:26:32;;;;;;;32.40;20.80;;;3.50;95.50;;;;;;5094574;28;20900;-83
2021/01/07 07:29:02;;;;;;;34.07;22.13;;;3.50;95.40;;;;;;5095027;28;20455;-84
2021/01/07 07:31:39;;;;;;;34.43;21.93;;;3.50;95.50;;;;;;5095295;28;20435;-84
2021/01/07 07:34:06;;;;;;;35.63;22.70;;;3.50;95.40;;;;;;5094646;28;20423;-85
2021/01/07 07:36:34;;;;;;;38.50;22.63;;;3.50;95.30;;;;;;5093918;28;20464;-85
2021/01/07 07:39:01;;;;;;;36.97;23.03;;;3.50;95.20;;;;;;5093749;28;20456;-85
2021/01/07 07:41:29;;;;;;;37.17;21.50;;;3.50;95.20;;;;;;5094034;28;20455;-85
2021/01/07 07:43:56;;;;;;;34.37;21.40;;;3.50;95.10;;;;;;5097052;28;20439;-86
2021/01/07 07:46:26;;;;;;;32.70;20.53;;;3.40;95.10;;;;;;5098198;28;20472;-86
2021/01/07 07:48:59;;;;;;;31.60;20.87;;;3.40;95.10;;;;;;5099354;28;20457;-85
2021/01/07 07:51:26;;;;;;;33.23;20.40;;;3.40;95.30;;;;;;5097940;28;20440;-84
2021/01/07 07:54:07;;;;;;;33.90;20.83;;;3.40;95.70;;;;;;5098202;28;20457;-85
2021/01/07 07:56:34;;;;;;;34.30;20.80;;;3.40;95.30;;;;;;5097860;28;20410;-85
2021/01/07 07:59:01;;;;;;;32.03;20.50;;;3.40;95.40;;;;;;5098321;28;20467;-85
2021/01/07 08:01:35;;;;;;;33.97;20.37;;;3.40;95.40;;;;;;5098615;28;20497;-84
2021/01/07 08:04:02;;;;;;;28.20;18.67;;;3.30;95.40;;;;;;5101401;28;20457;-84
2021/01/07 08:06:28;;;;;;;34.10;21.50;;;3.30;95.40;;;;;;5102301;28;20453;-84
2021/01/07 08:09:02;;;;;;;30.30;19.50;;;3.40;95.50;;;;;;5101424;28;20459;-84
2021/01/07 08:11:30;;;;;;;32.90;20.10;;;3.40;95.60;;;;;;5102413;28;20457;-84
2021/01/07 08:13:59;;;;;;;33.63;20.40;;;3.30;95.60;;;;;;5102017;28;20953;-83
2021/01/07 08:16:27;;;;;;;33.43;21.80;;;3.30;95.70;;;;;;5102102;28;20468;-83
2021/01/07 08:18:53;;;;;;;37.00;22.47;;;3.30;95.90;;;;;;5103898;28;20523;-83
2021/01/07 08:21:19;;;;;;;36.53;20.77;;;3.30;95.80;;;;;;5103631;28;20438;-83
2021/01/07 08:23:45;;;;;;;33.80;21.97;;;3.40;95.80;;;;;;5103269;28;20441;-83
2021/01/07 08:26:24;;;;;;;37.33;20.93;;;3.40;95.80;;;;;;5101487;28;20482;-82
2021/01/07 08:28:52;;;;;;;31.93;20.00;;;3.40;95.70;;;;;;5102498;28;20908;-82
2021/01/07 08:31:20;;;;;;;30.33;19.87;;;3.40;95.70;;;;;;5103148;28;20500;-83
2021/01/07 08:33:47;;;;;;;35.80;21.60;;;3.50;95.60;;;;;;5102474;28;20435;-83
2021/01/07 08:36:15;;;;;;;40.73;21.20;;;3.50;95.70;;;;;;5101432;28;20438;-83
2021/01/07 08:38:47;;;;;;;30.40;19.90;;;3.50;95.60;;;;;;5101078;28;20443;-82
2021/01/07 08:41:16;;;;;;;32.93;20.67;;;3.60;95.80;;;;;;5101016;28;20988;-82
2021/01/07 08:43:43;;;;;;;34.30;21.80;;;3.50;95.60;;;;;;5100287;28;20494;-82
2021/01/07 08:46:14;;;;;;;30.90;20.00;;;3.50;95.60;;;;;;5099876;28;20479;-83
2021/01/07 08:48:41;;;;;;;32.60;21.10;;;3.60;95.60;;;;;;5100066;28;20789;-83
2021/01/07 08:51:18;;;;;;;34.30;21.07;;;3.60;95.60;;;;;;5100357;28;20443;-83
2021/01/07 08:53:51;;;;;;;35.10;21.00;;;3.60;95.40;;;;;;5098838;28;20449;-83
2021/01/07 08:56:32;;;;;;;34.47;22.37;;;3.60;95.40;;;;;;5100126;28;20917;-83
2021/01/07 08:59:20;;;;;;;32.20;21.23;;;3.70;95.50;;;;;;5099561;28;20478;-82
2021/01/07 09:01:48;;;;;;;31.67;20.80;;;3.70;95.20;;;;;;5100479;28;20431;-83
2021/01/07 09:04:23;;;;;;;30.20;19.57;;;3.70;95.10;;;;;;5102681;28;20490;-83
2021/01/07 09:06:54;;;;;;;30.17;20.07;;;3.70;95.20;;;;;;5100497;28;20447;-82
2021/01/07 09:09:20;;;;;;;32.77;20.33;;;3.70;95.30;;;;;;5101501;28;20449;-82
2021/01/07 09:11:47;;;;;;;31.43;19.03;;;3.60;95.30;;;;;;5102678;28;20420;-83
2021/01/07 09:14:14;;;;;;;28.43;18.60;;;3.70;95.50;;;;;;5100286;28;20516;-82
2021/01/07 09:16:40;;;;;;;29.93;19.20;;;3.70;95.40;;;;;;5102913;28;20434;-83
2021/01/07 09:19:07;;;;;;;26.80;18.20;;;3.70;95.50;;;;;;5100877;28;20482;-83
2021/01/07 09:21:34;;;;;;;25.53;16.73;;;3.70;95.40;;;;;;5098357;28;20963;-82
2021/01/07 09:24:00;;;;;;;29.60;19.97;;;3.80;95.40;;;;;;5100061;28;20521;-82
2021/01/07 09:26:29;;;;;;;25.13;17.73;;;3.70;95.20;;;;;;5100071;28;20460;-82
2021/01/07 09:28:57;;;;;;;26.63;18.07;;;3.70;95.40;;;;;;5099668;28;20467;-82
2021/01/07 09:31:23;;;;;;;29.70;17.60;;;3.60;95.40;;;;;;5099303;28;20461;-82
2021/01/07 09:33:49;;;;;;;22.80;16.60;;;3.60;95.50;;;;;;5099025;28;20774;-83
2021/01/07 09:36:16;;;;;;;24.20;17.33;;;3.60;95.40;;;;;;5099715;28;20438;-82
2021/01/07 09:38:42;;;;;;;26.40;17.93;;;3.60;95.40;;;;;;5100492;28;20451;-83
2021/01/07 09:41:08;;;;;;;27.40;17.90;;;3.60;95.50;;;;;;5098814;28;20443;-82
2021/01/07 09:43:35;;;;;;;30.93;19.83;;;3.60;95.60;;;;;;5099058;28;20484;-83
2021/01/07 09:46:02;;;;;;;26.10;17.47;;;3.60;95.60;;;;;;5098647;28;20485;-83
2021/01/07 09:48:28;;;;;;;26.40;17.93;;;3.60;95.70;;;;;;5099155;28;20453;-83
2021/01/07 09:50:54;;;;;;;28.57;19.17;;;3.60;95.80;;;;;;5098008;28;20450;-83
2021/01/07 09:53:21;;;;;;;25.20;17.37;;;3.70;95.90;;;;;;5099742;28;20798;-82
2021/01/07 09:55:49;;;;;;;25.37;17.13;;;3.70;95.90;;;;;;5097755;28;20443;-82
2021/01/07 09:58:16;;;;;;;24.23;18.80;;;3.80;95.70;;;;;;5098144;28;20451;-82
2021/01/07 10:00:42;;;;;;;21.70;15.50;;;3.80;95.50;;;;;;5098045;28;21034;-82
2021/01/07 10:03:09;;;;;;;27.33;17.90;;;3.80;95.60;;;;;;5098799;28;20964;-82
2021/01/07 10:05:35;;;;;;;23.30;16.83;;;3.80;95.50;;;;;;5098151;28;20486;-82
2021/01/07 10:08:01;;;;;;;21.70;15.40;;;3.90;95.40;;;;;;5097133;28;20451;-82
2021/01/07 10:10:28;;;;;;;20.60;15.50;;;4.00;95.50;;;;;;5097538;28;20482;-82
2021/01/07 10:12:54;;;;;;;22.83;16.27;;;4.00;95.60;;;;;;5097403;28;20794;-82
2021/01/07 10:15:20;;;;;;;22.93;16.60;;;4.00;95.10;;;;;;5097481;28;20439;-82
2021/01/07 10:17:47;;;;;;;18.77;14.43;;;4.00;95.30;;;;;;5098658;28;20440;-82
2021/01/07 10:20:14;;;;;;;19.40;14.43;;;4.10;95.20;;;;;;5097285;28;20466;-82
2021/01/07 10:22:42;;;;;;;19.90;14.70;;;4.10;95.10;;;;;;5096530;28;20454;-82
2021/01/07 10:25:09;;;;;;;23.63;15.67;;;4.10;95.00;;;;;;5096457;28;20482;-82
2021/01/07 10:27:36;;;;;;;19.80;14.90;;;4.10;95.00;;;;;;5098080;28;20810;-82
2021/01/07 10:30:04;;;;;;;19.70;15.07;;;4.10;94.90;;;;;;5096079;28;20520;-82
2021/01/07 10:32:30;;;;;;;21.80;16.20;;;4.10;95.00;;;;;;5098515;28;20415;-83
2021/01/07 10:34:56;;;;;;;21.37;16.57;;;4.20;95.10;;;;;;5098037;28;20829;-82
2021/01/07 10:37:25;;;;;;;24.77;16.33;;;4.20;95.20;;;;;;5096992;28;20508;-82
2021/01/07 10:39:53;;;;;;;18.13;14.80;;;4.30;95.20;;;;;;5097355;28;20501;-82
2021/01/07 10:42:21;;;;;;;21.33;14.67;;;4.30;94.70;;;;;;5095996;28;20477;-82
2021/01/07 10:44:48;;;;;;;22.70;14.93;;;4.30;94.60;;;;;;5095500;28;20487;-82
2021/01/07 10:47:16;;;;;;;21.13;14.90;;;4.30;94.60;;;;;;5095022;28;20494;-82
2021/01/07 10:49:45;;;;;;;21.93;14.70;;;4.30;94.70;;;;;;5095249;28;20985;-82
2021/01/07 10:52:35;;;;;;;23.20;15.73;;;4.30;94.60;;;;;;5104782;28;20435;-82
2021/01/07 10:55:20;;;;;;;21.73;14.70;;;4.20;94.60;;;;;;5092533;28;20530;-83
2021/01/07 10:58:11;;;;;;;30.33;17.70;;;4.20;94.90;;;;;;5100206;28;20917;-82
2021/01/07 11:00:48;;;;;;;24.67;16.20;;;4.10;94.90;;;;;;5101271;28;20467;-82
2021/01/07 11:03:27;;;;;;;24.33;16.67;;;4.10;94.90;;;;;;5101027;28;20449;-82
2021/01/07 11:05:59;;;;;;;24.87;16.40;;;4.10;95.00;;;;;;5100688;28;20471;-82
2021/01/07 11:08:30;;;;;;;23.50;16.83;;;4.10;95.10;;;;;;5100071;28;20443;-82
2021/01/07 11:10:59;;;;;;;24.97;17.23;;;4.10;95.10;;;;;;5099391;28;20486;-82
2021/01/07 11:13:35;;;;;;;27.53;17.20;;;4.10;95.20;;;;;;5098956;28;20936;-82
2021/01/07 11:16:03;;;;;;;25.20;16.93;;;4.10;95.30;;;;;;5098797;28;20850;-82
2021/01/07 11:18:30;;;;;;;25.97;17.53;;;4.20;95.50;;;;;;5098729;28;20482;-82
2021/01/07 11:21:00;;;;;;;26.53;17.03;;;4.20;95.60;;;;;;5098240;28;20467;-82
2021/01/07 11:23:28;;;;;;;24.73;16.23;;;4.30;95.40;;;;;;5097662;28;20436;-82
2021/01/07 11:25:55;;;;;;;28.93;16.80;;;4.30;95.40;;;;;;5097412;28;20498;-82
2021/01/07 11:28:21;;;;;;;23.67;16.20;;;4.30;95.50;;;;;;5097783;28;20435;-83
2021/01/07 11:30:48;;;;;;;23.27;16.27;;;4.30;95.20;;;;;;5096790;28;20980;-82
2021/01/07 11:33:17;;;;;;;27.73;18.20;;;4.40;95.10;;;;;;5097251;28;20470;-83
2021/01/07 11:35:44;;;;;;;31.67;17.93;;;4.40;95.10;;;;;;5097672;28;20443;-84
2021/01/07 11:38:23;;;;;;;27.13;18.30;;;4.50;95.30;;;;;;5096295;28;20411;-84
2021/01/07 11:40:55;;;;;;;27.47;16.67;;;4.50;95.00;;;;;;5096547;28;20463;-84
2021/01/07 11:43:53;;;;;;;25.60;16.47;;;4.50;94.90;;;;;;5097174;28;20905;-84
2021/01/07 11:46:21;;;;;;;21.63;15.27;;;4.50;94.90;;;;;;5096502;28;20479;-83
2021/01/07 11:48:56;;;;;;;22.10;16.37;;;4.50;94.90;;;;;;5096515;28;20504;-84
2021/01/07 11:51:22;;;;;;;21.63;15.13;;;4.50;94.70;;;;;;5096492;28;20434;-83
2021/01/07 11:53:49;;;;;;;22.53;15.47;;;4.40;94.60;;;;;;5096567;28;20448;-83
2021/01/07 11:56:17;;;;;;;22.53;14.37;;;4.30;94.80;;;;;;5099099;28;20508;-84
2021/01/07 11:58:44;;;;;;;23.63;16.70;;;4.30;94.80;;;;;;5099198;28;20461;-84
2021/01/07 12:01:11;;;;;;;23.90;16.20;;;4.30;95.00;;;;;;5098044;28;20435;-84
2021/01/07 12:03:37;;;;;;;27.53;17.63;;;4.30;95.30;;;;;;5098240;28;20469;-84
2021/01/07 12:06:05;;;;;;;27.57;17.37;;;4.30;95.20;;;;;;5099162;28;20569;-84
2021/01/07 12:09:10;;;;;;;27.23;17.17;;;4.30;95.30;;;;;;5098682;28;20431;-82
2021/01/07 12:11:51;;;;;;;24.00;16.27;;;4.40;95.40;;;;;;5034010;28;20449;-83
2021/01/07 12:14:22;;;;;;;23.73;16.23;;;4.40;95.30;;;;;;5092917;28;20447;-83
2021/01/07 12:16:51;;;;;;;21.17;15.40;;;4.40;95.40;;;;;;5097918;28;20481;-84
2021/01/07 12:19:20;;;;;;;23.50;16.37;;;4.40;95.40;;;;;;5098280;28;20819;-84
2021/01/07 12:21:48;;;;;;;22.30;15.50;;;4.40;95.00;;;;;;5098334;28;20447;-84
2021/01/07 12:24:16;;;;;;;19.80;14.07;;;4.40;95.00;;;;;;5099299;28;20428;-84
2021/01/07 12:26:45;;;;;;;20.07;15.10;;;4.40;95.30;;;;;;5097546;28;20424;-84
2021/01/07 12:29:17;;;;;;;21.10;16.10;;;4.40;95.40;;;;;;5097411;28;20980;-83
2021/01/07 12:31:45;;;;;;;18.60;13.60;;;4.40;95.10;;;;;;5097763;28;20422;-84
2021/01/07 12:34:24;;;;;;;21.53;15.07;;;4.40;95.30;;;;;;5097241;28;20444;-83
2021/01/07 12:37:04;;;;;;;23.47;15.17;;;4.50;95.40;;;;;;5097095;28;20454;-84
2021/01/07 12:39:36;;;;;;;17.03;13.33;;;4.60;95.50;;;;;;5097658;28;20475;-83
2021/01/07 12:42:08;;;;;;;18.37;13.23;;;4.60;95.20;;;;;;5097580;28;20929;-83